createdAt,value
2023-03-10T00:00:41.637Z,35.53
2023-03-10T00:03:11.280Z,35.03
2023-03-10T00:05:40.402Z,36.97
2023-03-10T00:08:08.874Z,35.33
2023-03-10T00:10:36.932Z,28.80
2023-03-10T00:13:04.910Z,36.10
2023-03-10T00:15:33.022Z,33.03
2023-03-10T00:18:01.035Z,36.80
2023-03-10T00:20:30.377Z,31.30
2023-03-10T00:22:58.385Z,39.27
2023-03-10T00:25:26.386Z,35.30
2023-03-10T00:27:54.432Z,33.30
2023-03-10T00:30:22.597Z,37.37
2023-03-10T00:32:50.928Z,39.97
2023-03-10T00:35:19.412Z,38.00
2023-03-10T00:37:48.757Z,36.10
2023-03-10T00:40:17.084Z,35.37
2023-03-10T00:42:45.149Z,34.53
2023-03-10T00:45:13.264Z,37.43
2023-03-10T00:47:41.238Z,38.77
2023-03-10T00:50:15.112Z,36.60
2023-03-10T00:52:43.083Z,35.20
2023-03-10T00:55:14.003Z,39.83
2023-03-10T00:57:42.046Z,37.03
2023-03-10T01:00:12.009Z,35.97
2023-03-10T01:02:40.064Z,35.47
2023-03-10T01:05:08.585Z,33.53
2023-03-10T01:07:36.603Z,35.23
2023-03-10T01:10:04.776Z,40.20
2023-03-10T01:12:34.183Z,36.07
2023-03-10T01:15:02.210Z,41.80
2023-03-10T01:17:30.302Z,37.87
2023-03-10T01:19:58.588Z,34.03
2023-03-10T01:22:26.713Z,36.37
2023-03-10T01:24:54.734Z,38.00
2023-03-10T01:27:22.753Z,39.93
2023-03-10T01:29:52.127Z,37.37
2023-03-10T01:32:20.204Z,39.77
2023-03-10T01:34:48.326Z,37.43
2023-03-10T01:37:16.312Z,40.93
2023-03-10T01:39:44.300Z,34.83
2023-03-10T01:42:12.333Z,37.93
2023-03-10T01:44:40.319Z,38.80
2023-03-10T01:47:09.736Z,38.63
2023-03-10T01:49:41.544Z,39.90
2023-03-10T01:52:13.643Z,39.33
2023-03-10T01:54:49.464Z,40.37
2023-03-10T01:57:20.058Z,33.17
2023-03-10T01:59:48.664Z,36.47
2023-03-10T02:02:19.048Z,37.70
2023-03-10T02:04:49.466Z,39.87
2023-03-10T02:07:20.049Z,44.57
2023-03-10T02:09:50.430Z,39.47
2023-03-10T02:12:19.065Z,34.93
2023-03-10T02:14:49.232Z,37.53
2023-03-10T02:17:22.934Z,36.07
2023-03-10T02:20:06.510Z,35.63
2023-03-10T02:22:34.955Z,33.27
2023-03-10T02:25:11.919Z,33.43
2023-03-10T02:27:41.728Z,39.77
2023-03-10T02:30:14.322Z,38.70
2023-03-10T02:32:45.476Z,37.73
2023-03-10T02:35:14.089Z,38.53
2023-03-10T02:37:42.324Z,37.27
2023-03-10T02:40:35.356Z,43.37
2023-03-10T02:43:09.289Z,32.90
2023-03-10T02:45:39.577Z,34.03
2023-03-10T02:48:09.044Z,34.33
2023-03-10T02:50:39.666Z,33.93
2023-03-10T02:53:11.812Z,33.07
2023-03-10T02:55:39.865Z,31.27
2023-03-10T02:58:09.382Z,36.47
2023-03-10T03:00:39.186Z,34.30
2023-03-10T03:03:08.208Z,30.27
2023-03-10T03:05:36.778Z,31.50
2023-03-10T03:08:05.380Z,31.90
2023-03-10T03:10:34.112Z,30.23
2023-03-10T03:13:02.483Z,31.53
2023-03-10T03:15:31.981Z,29.20
2023-03-10T03:18:00.444Z,30.90
2023-03-10T03:20:29.406Z,35.00
2023-03-10T03:22:58.435Z,29.47
2023-03-10T03:25:29.257Z,26.43
2023-03-10T03:27:57.666Z,31.63
2023-03-10T03:30:27.516Z,32.73
2023-03-10T03:32:57.352Z,30.07
2023-03-10T03:35:28.738Z,29.13
2023-03-10T03:37:57.295Z,28.93
2023-03-10T03:40:27.778Z,24.23
2023-03-10T03:42:56.282Z,27.47
2023-03-10T03:45:26.761Z,27.13
2023-03-10T03:47:56.200Z,27.23
2023-03-10T03:50:25.373Z,27.50
2023-03-10T03:52:53.397Z,28.97
2023-03-10T03:55:21.657Z,24.47
2023-03-10T03:57:49.903Z,21.87
2023-03-10T04:00:20.712Z,23.17
2023-03-10T04:02:49.037Z,22.90
2023-03-10T04:05:19.114Z,23.47
2023-03-10T04:07:49.816Z,20.83
2023-03-10T04:10:20.257Z,25.63
2023-03-10T04:12:48.318Z,24.87
2023-03-10T04:15:16.316Z,25.77
2023-03-10T04:17:44.399Z,28.63
2023-03-10T04:20:14.257Z,21.97
2023-03-10T04:22:43.688Z,23.07
2023-03-10T04:25:12.546Z,21.90
2023-03-10T04:27:40.547Z,22.33
2023-03-10T04:30:10.182Z,19.50
2023-03-10T04:32:38.336Z,20.87
2023-03-10T04:35:08.312Z,20.67
2023-03-10T04:37:36.311Z,17.80
2023-03-10T04:40:09.415Z,19.83
2023-03-10T04:42:37.775Z,16.90
2023-03-10T04:45:06.721Z,16.97
2023-03-10T04:47:34.837Z,19.60
2023-03-10T04:50:02.848Z,17.80
2023-03-10T04:52:30.855Z,15.67
2023-03-10T04:54:58.871Z,18.37
2023-03-10T04:57:29.014Z,20.20
2023-03-10T04:59:57.072Z,18.07
2023-03-10T05:02:25.054Z,14.07
2023-03-10T05:04:53.085Z,13.17
2023-03-10T05:07:21.432Z,19.33
2023-03-10T05:09:49.511Z,15.70
2023-03-10T05:12:17.551Z,12.33
2023-03-10T05:14:46.927Z,8.30
2023-03-10T05:17:14.966Z,13.57
2023-03-10T05:19:43.028Z,8.80
2023-03-10T05:22:12.609Z,11.00
2023-03-10T05:24:40.871Z,8.23
2023-03-10T05:27:10.508Z,10.30
2023-03-10T05:29:39.769Z,10.83
2023-03-10T05:32:09.540Z,4.97
2023-03-10T05:34:37.566Z,5.93
2023-03-10T05:37:05.724Z,9.73
2023-03-10T05:39:33.741Z,4.63
2023-03-10T05:42:01.966Z,6.47
2023-03-10T05:44:30.021Z,8.67
2023-03-10T05:46:58.148Z,6.83
2023-03-10T05:49:27.654Z,9.50
2023-03-10T05:51:55.635Z,7.57
2023-03-10T05:54:23.738Z,8.60
2023-03-10T05:56:52.132Z,13.13
2023-03-10T05:59:20.176Z,7.97
2023-03-10T06:01:48.180Z,9.47
2023-03-10T06:04:16.229Z,10.03
2023-03-10T06:06:45.676Z,9.70
2023-03-10T06:09:13.730Z,6.00
2023-03-10T06:11:41.734Z,6.20
2023-03-10T06:14:10.577Z,5.90
2023-03-10T06:16:38.610Z,10.13
2023-03-10T06:19:06.599Z,5.57
2023-03-10T06:21:34.568Z,12.80
2023-03-10T06:24:04.114Z,5.50
2023-03-10T06:26:32.153Z,8.27
2023-03-10T06:29:00.135Z,5.67
2023-03-10T06:32:22.592Z,10.67
2023-03-10T06:34:50.619Z,5.67
2023-03-10T06:37:18.696Z,8.20
2023-03-10T06:39:48.049Z,4.63
2023-03-10T06:42:16.014Z,6.07
2023-03-10T06:44:44.613Z,4.17
2023-03-10T06:47:12.576Z,4.13
2023-03-10T06:49:40.790Z,6.03
2023-03-10T06:52:08.812Z,6.53
2023-03-10T06:54:37.331Z,3.90
2023-03-10T06:57:07.308Z,4.13
2023-03-10T06:59:35.284Z,2.77
2023-03-10T07:02:03.713Z,4.40
2023-03-10T07:04:31.770Z,3.40
2023-03-10T07:06:59.951Z,6.50
2023-03-10T07:09:27.949Z,5.03
2023-03-10T07:11:55.950Z,8.23
2023-03-10T07:14:25.276Z,4.37
2023-03-10T07:16:53.355Z,8.70
2023-03-10T07:19:21.442Z,6.87
2023-03-10T07:21:49.564Z,4.30
2023-03-10T07:24:17.994Z,3.70
2023-03-10T07:26:46.301Z,3.60
2023-03-10T07:29:14.296Z,3.43
2023-03-10T07:31:45.440Z,3.47
2023-03-10T07:34:13.458Z,5.57
2023-03-10T07:36:41.466Z,5.23
2023-03-10T07:39:09.531Z,2.40
2023-03-10T07:41:37.541Z,2.57
2023-03-10T07:44:05.911Z,5.13
2023-03-10T07:46:33.945Z,1.77
2023-03-10T07:49:04.333Z,2.63
2023-03-10T07:51:32.813Z,2.10
2023-03-10T07:54:00.908Z,2.87
2023-03-10T07:56:28.929Z,4.47
2023-03-10T07:58:56.936Z,3.27
2023-03-10T08:01:25.053Z,2.73
2023-03-10T08:03:54.319Z,3.20
2023-03-10T08:06:26.920Z,1.77
2023-03-10T08:08:55.701Z,2.50
2023-03-10T08:11:23.733Z,2.30
2023-03-10T08:13:52.237Z,4.17
2023-03-10T08:16:22.497Z,1.50
2023-03-10T08:18:50.891Z,2.77
2023-03-10T08:21:18.905Z,1.67
2023-03-10T08:23:48.544Z,1.77
2023-03-10T08:26:18.445Z,3.63
2023-03-10T08:28:46.952Z,1.53
2023-03-10T08:31:17.261Z,4.73
2023-03-10T08:33:46.768Z,2.53
2023-03-10T08:36:17.457Z,0.90
2023-03-10T08:38:45.873Z,2.93
2023-03-10T08:41:18.098Z,5.10
2023-03-10T08:43:49.167Z,1.10
2023-03-10T08:46:18.323Z,0.73
2023-03-10T08:48:46.643Z,1.27
2023-03-10T08:51:16.188Z,1.37
2023-03-10T08:53:46.622Z,2.47
2023-03-10T08:56:18.108Z,1.93
2023-03-10T08:58:46.413Z,1.60
2023-03-10T09:01:15.182Z,3.10
2023-03-10T09:03:45.432Z,1.03
2023-03-10T09:06:13.600Z,2.83
2023-03-10T09:08:42.140Z,1.43
2023-03-10T09:11:11.197Z,1.33
2023-03-10T09:13:41.039Z,0.90
2023-03-10T09:16:11.146Z,1.73
2023-03-10T09:18:39.554Z,2.50
2023-03-10T09:21:07.668Z,1.60
2023-03-10T09:23:35.905Z,0.90
2023-03-10T09:26:03.905Z,0.90
2023-03-10T09:28:31.918Z,0.80
2023-03-10T09:31:01.271Z,0.77
2023-03-10T09:33:29.921Z,1.10
2023-03-10T09:36:06.563Z,2.00
2023-03-10T09:38:35.156Z,2.47
2023-03-10T09:41:14.663Z,2.20
2023-03-10T09:43:50.516Z,0.90
2023-03-10T09:46:25.790Z,1.10
2023-03-10T09:49:02.296Z,1.50
2023-03-10T09:51:30.611Z,1.47
2023-03-10T09:54:21.489Z,1.17
2023-03-10T09:56:49.483Z,0.83
2023-03-10T09:59:29.820Z,2.03
2023-03-10T10:02:01.284Z,2.27
2023-03-10T10:04:35.078Z,0.60
2023-03-10T10:07:07.158Z,1.90
2023-03-10T10:09:43.171Z,3.60
2023-03-10T10:12:12.957Z,2.43
2023-03-10T10:14:48.125Z,1.10
2023-03-10T10:17:29.877Z,1.03
2023-03-10T10:19:59.246Z,1.97
2023-03-10T10:22:29.835Z,1.47
2023-03-10T10:25:10.582Z,0.87
2023-03-10T10:27:39.471Z,2.07
2023-03-10T10:30:27.620Z,1.33
2023-03-10T10:33:01.866Z,2.60
2023-03-10T10:35:31.967Z,0.70
2023-03-10T10:38:01.872Z,1.07
2023-03-10T10:40:33.361Z,1.00
2023-03-10T10:43:05.681Z,1.23
2023-03-10T10:45:35.877Z,2.97
2023-03-10T10:48:05.919Z,0.70
2023-03-10T10:50:35.964Z,0.80
2023-03-10T10:53:21.883Z,0.97
2023-03-10T10:56:01.546Z,1.07
2023-03-10T10:58:32.486Z,1.83
2023-03-10T11:01:02.627Z,0.80
2023-03-10T11:03:34.829Z,3.83
2023-03-10T11:06:13.536Z,4.03
2023-03-10T11:08:45.072Z,1.57
2023-03-10T11:11:21.525Z,1.50
2023-03-10T11:14:10.830Z,4.17
2023-03-10T11:16:48.110Z,0.93
2023-03-10T11:19:25.916Z,2.60
2023-03-10T11:22:00.882Z,2.13
2023-03-10T11:24:36.139Z,2.80
2023-03-10T11:27:11.554Z,1.13
2023-03-10T11:30:04.577Z,1.83
2023-03-10T11:32:44.294Z,2.30
2023-03-10T11:35:26.179Z,4.00
2023-03-10T11:38:03.148Z,1.00
2023-03-10T11:40:36.938Z,1.20
2023-03-10T11:43:09.431Z,2.33
2023-03-10T11:45:40.924Z,4.07
2023-03-10T11:48:23.782Z,0.90
2023-03-10T11:50:54.964Z,3.83
2023-03-10T11:53:39.348Z,2.07
2023-03-10T11:56:10.218Z,2.27
2023-03-10T11:58:43.578Z,2.80
2023-03-10T12:01:16.065Z,2.53
2023-03-10T12:03:50.086Z,3.57
2023-03-10T12:06:26.417Z,3.57
2023-03-10T12:08:57.328Z,3.20
2023-03-10T12:11:28.136Z,1.90
2023-03-10T12:14:00.406Z,3.23
2023-03-10T12:16:31.877Z,2.63
2023-03-10T12:19:00.233Z,2.97
2023-03-10T12:21:31.931Z,5.17
2023-03-10T12:24:01.343Z,3.00
2023-03-10T12:27:03.384Z,1.37
2023-03-10T12:29:36.965Z,1.17
2023-03-10T12:32:05.977Z,1.03
2023-03-10T12:34:33.992Z,2.87
2023-03-10T12:37:09.486Z,3.00
2023-03-10T12:39:40.539Z,1.87
2023-03-10T12:42:30.125Z,3.10
2023-03-10T12:45:25.413Z,1.83
2023-03-10T12:48:02.296Z,3.13
2023-03-10T12:50:47.277Z,1.27
2023-03-10T12:53:33.178Z,2.37
2023-03-10T12:56:23.693Z,4.47
2023-03-10T12:58:59.583Z,2.00
2023-03-10T13:01:35.183Z,1.47
2023-03-10T13:04:08.279Z,4.23
2023-03-10T13:06:39.741Z,2.43
2023-03-10T13:09:22.030Z,1.87
2023-03-10T13:11:54.387Z,5.97
2023-03-10T13:14:24.668Z,2.43
2023-03-10T13:16:57.881Z,1.50
2023-03-10T13:19:28.214Z,2.07
2023-03-10T13:21:56.631Z,1.43
2023-03-10T13:24:29.297Z,1.67
2023-03-10T13:27:05.277Z,2.07
2023-03-10T13:29:33.747Z,4.07
2023-03-10T13:32:01.886Z,1.20
2023-03-10T13:34:32.454Z,1.10
2023-03-10T13:37:05.322Z,2.27
2023-03-10T13:39:34.809Z,2.37
2023-03-10T13:42:05.177Z,4.23
2023-03-10T13:44:35.620Z,0.67
2023-03-10T13:47:06.223Z,2.30
2023-03-10T13:49:37.036Z,3.77
2023-03-10T13:52:07.230Z,1.37
2023-03-10T13:54:37.875Z,2.90
2023-03-10T13:57:12.948Z,4.43
2023-03-10T13:59:41.661Z,1.57
2023-03-10T14:02:16.888Z,3.43
2023-03-10T14:04:48.522Z,3.17
2023-03-10T14:07:19.440Z,2.93
2023-03-10T14:10:10.493Z,2.37
2023-03-10T14:12:40.070Z,3.57
2023-03-10T14:15:13.123Z,1.83
2023-03-10T14:17:42.493Z,2.00
2023-03-10T14:20:12.052Z,3.10
2023-03-10T14:22:43.228Z,2.03
2023-03-10T14:25:18.623Z,2.60
2023-03-10T14:27:48.478Z,2.43
2023-03-10T14:30:20.596Z,3.53
2023-03-10T14:32:49.059Z,1.30
2023-03-10T14:35:20.223Z,4.70
2023-03-10T14:37:48.500Z,3.03
2023-03-10T14:40:19.118Z,2.97
2023-03-10T14:43:02.144Z,2.00
2023-03-10T14:45:33.024Z,2.23
2023-03-10T14:48:03.103Z,3.77
2023-03-10T14:50:32.494Z,1.67
2023-03-10T14:53:00.593Z,2.30
2023-03-10T14:55:30.151Z,0.60
2023-03-10T14:58:01.062Z,0.73
2023-03-10T15:00:29.352Z,0.40
2023-03-10T15:02:57.452Z,0.97
2023-03-10T15:05:34.636Z,0.47
2023-03-10T15:08:13.325Z,0.40
2023-03-10T15:10:44.293Z,0.47
2023-03-10T15:13:13.665Z,1.10
2023-03-10T15:15:43.549Z,1.70
2023-03-10T15:18:13.147Z,2.13
2023-03-10T15:20:41.946Z,0.70
2023-03-10T15:23:13.707Z,0.57
2023-03-10T15:25:46.002Z,0.83
2023-03-10T15:28:14.766Z,0.60
2023-03-10T15:30:43.376Z,0.70
2023-03-10T15:33:12.214Z,0.63
2023-03-10T15:35:40.906Z,0.60
2023-03-10T15:38:09.153Z,1.23
2023-03-10T15:40:38.814Z,0.40
2023-03-10T15:43:08.801Z,0.40
2023-03-10T15:45:40.858Z,1.27
2023-03-10T15:48:09.647Z,0.83
2023-03-10T15:50:38.010Z,0.60
2023-03-10T15:53:06.002Z,1.47
2023-03-10T15:55:36.522Z,1.77
2023-03-10T15:58:04.686Z,2.03
2023-03-10T16:00:34.407Z,3.53
2023-03-10T16:03:02.863Z,3.20
2023-03-10T16:05:30.901Z,4.07
2023-03-10T16:07:58.939Z,3.97
2023-03-10T16:10:26.941Z,6.67
2023-03-10T16:12:55.085Z,9.53
2023-03-10T16:15:23.059Z,18.23
2023-03-10T16:17:52.453Z,12.60
2023-03-10T16:20:21.291Z,12.40
2023-03-10T16:22:49.312Z,28.33
2023-03-10T16:25:19.403Z,99.17
2023-03-10T16:27:48.364Z,41.23
2023-03-10T16:30:18.371Z,7.40
2023-03-10T16:32:46.831Z,10.17
2023-03-10T16:35:17.055Z,5.10
2023-03-10T16:37:45.385Z,2.73
2023-03-10T16:40:14.207Z,2.50
2023-03-10T16:42:45.499Z,2.60
2023-03-10T16:45:14.260Z,1.43
2023-03-10T16:47:44.136Z,1.13
2023-03-10T16:50:14.248Z,0.90
2023-03-10T16:52:44.133Z,1.80
2023-03-10T16:55:17.331Z,0.90
2023-03-10T16:57:46.364Z,1.13
2023-03-10T17:00:15.592Z,1.77
2023-03-10T17:02:43.736Z,2.90
2023-03-10T17:05:14.382Z,4.33
2023-03-10T17:07:55.205Z,0.80
2023-03-10T17:10:23.829Z,1.83
2023-03-10T17:12:51.848Z,0.87
2023-03-10T17:15:20.044Z,2.43
2023-03-10T17:17:48.052Z,1.63
2023-03-10T17:20:18.306Z,1.60
2023-03-10T17:22:47.862Z,1.27
2023-03-10T17:25:16.211Z,4.90
2023-03-10T17:27:44.217Z,4.10
2023-03-10T17:30:15.292Z,2.27
2023-03-10T17:32:43.396Z,2.77
2023-03-10T17:35:11.690Z,2.67
2023-03-10T17:37:40.706Z,1.13
2023-03-10T17:40:15.191Z,0.83
2023-03-10T17:42:43.291Z,1.13
2023-03-10T17:45:12.258Z,1.47
2023-03-10T17:47:41.117Z,6.43
2023-03-10T17:50:10.138Z,5.47
2023-03-10T17:52:38.323Z,6.43
2023-03-10T17:55:07.470Z,8.00
2023-03-10T17:57:38.552Z,3.43
2023-03-10T18:00:09.337Z,2.73
2023-03-10T18:02:37.444Z,1.87
2023-03-10T18:05:05.979Z,2.07
2023-03-10T18:07:34.010Z,2.07
2023-03-10T18:10:01.978Z,1.60
2023-03-10T18:12:29.945Z,1.30
2023-03-10T18:14:59.290Z,2.17
2023-03-10T18:17:28.825Z,6.73
2023-03-10T18:19:56.844Z,7.03
2023-03-10T18:22:24.836Z,11.03
2023-03-10T18:24:52.814Z,21.30
2023-03-10T18:27:20.791Z,15.10
2023-03-10T18:29:48.953Z,5.97
2023-03-10T18:32:18.930Z,5.10
2023-03-10T18:34:46.973Z,7.93
2023-03-10T18:37:14.978Z,6.87
2023-03-10T18:39:43.147Z,5.60
2023-03-10T18:42:12.542Z,6.20
2023-03-10T18:44:40.512Z,5.27
2023-03-10T18:47:08.467Z,6.20
2023-03-10T18:49:37.781Z,7.47
2023-03-10T18:52:06.339Z,3.70
2023-03-10T18:54:34.344Z,5.57
2023-03-10T18:57:02.470Z,18.30
2023-03-10T18:59:30.488Z,13.93
2023-03-10T19:01:59.153Z,16.33
2023-03-10T19:04:27.388Z,15.53
2023-03-10T19:06:56.766Z,25.97
2023-03-10T19:09:25.023Z,17.10
2023-03-10T19:11:54.089Z,10.80
2023-03-10T19:14:22.127Z,11.30
2023-03-10T19:16:51.283Z,5.93
2023-03-10T19:19:19.286Z,5.03
2023-03-10T19:21:47.244Z,3.30
2023-03-10T19:24:16.754Z,4.93
2023-03-10T19:26:45.002Z,3.37
2023-03-10T19:29:12.995Z,4.50
2023-03-10T19:31:41.145Z,2.07
2023-03-10T19:34:09.234Z,3.47
2023-03-10T19:36:37.267Z,2.20
2023-03-10T19:39:05.960Z,2.77
2023-03-10T19:41:35.336Z,2.60
2023-03-10T19:44:03.430Z,2.97
2023-03-10T19:46:31.471Z,1.57
2023-03-10T19:48:59.539Z,1.33
2023-03-10T19:51:29.479Z,1.23
2023-03-10T19:53:58.645Z,2.37
2023-03-10T19:56:27.209Z,2.70
2023-03-10T19:58:57.126Z,2.77
2023-03-10T20:01:26.882Z,5.90
2023-03-10T20:03:57.648Z,2.17
2023-03-10T20:06:26.241Z,3.40
2023-03-10T20:08:54.501Z,3.60
2023-03-10T20:11:23.030Z,2.43
2023-03-10T20:13:53.980Z,2.30
2023-03-10T20:16:24.422Z,2.73
2023-03-10T20:18:52.648Z,2.87
2023-03-10T20:21:20.715Z,2.47
2023-03-10T20:23:48.839Z,3.07
2023-03-10T20:26:18.002Z,3.17
2023-03-10T20:28:46.768Z,1.73
2023-03-10T20:31:17.310Z,4.13
2023-03-10T20:33:47.028Z,4.33
2023-03-10T20:36:15.872Z,3.40
2023-03-10T20:38:44.681Z,6.30
2023-03-10T20:41:13.624Z,5.53
2023-03-10T20:43:42.260Z,6.87
2023-03-10T20:46:11.408Z,3.80
2023-03-10T20:48:39.784Z,6.83
2023-03-10T20:51:09.179Z,7.23
2023-03-10T20:53:37.328Z,5.33
2023-03-10T20:56:09.663Z,4.37
2023-03-10T20:58:38.326Z,3.33
2023-03-10T21:01:06.632Z,4.87
2023-03-10T21:03:34.772Z,6.80
2023-03-10T21:06:03.278Z,8.23
2023-03-10T21:08:32.663Z,7.00
2023-03-10T21:11:00.728Z,7.37
2023-03-10T21:13:28.856Z,3.97
2023-03-10T21:15:57.003Z,4.33
2023-03-10T21:18:25.876Z,2.73
2023-03-10T21:20:53.918Z,2.37
2023-03-10T21:23:21.918Z,2.40
2023-03-10T21:25:51.334Z,1.47
2023-03-10T21:28:19.317Z,1.07
2023-03-10T21:30:47.401Z,1.30
2023-03-10T21:33:15.487Z,1.07
2023-03-10T21:35:43.542Z,1.43
2023-03-10T21:38:12.326Z,2.63
2023-03-10T21:40:40.365Z,0.83
2023-03-10T21:43:10.556Z,0.90
2023-03-10T21:45:38.626Z,0.80
2023-03-10T21:48:07.056Z,0.60
2023-03-10T21:50:35.101Z,0.90
2023-03-10T21:53:03.568Z,2.20
2023-03-10T21:55:33.230Z,0.77
2023-03-10T21:58:02.940Z,0.93
2023-03-10T22:00:33.035Z,0.50
2023-03-10T22:03:02.332Z,1.40
2023-03-10T22:05:30.316Z,1.33
2023-03-10T22:07:59.250Z,1.63
2023-03-10T22:10:27.735Z,0.63
2023-03-10T22:12:55.741Z,0.57
2023-03-10T22:15:25.886Z,0.50
2023-03-10T22:17:56.710Z,1.17
2023-03-10T22:20:26.576Z,1.03
2023-03-10T22:22:54.590Z,0.50
2023-03-10T22:25:22.807Z,0.77
2023-03-10T22:27:52.732Z,1.17
2023-03-10T22:30:21.505Z,0.63
2023-03-10T22:32:49.844Z,0.53
2023-03-10T22:35:19.734Z,0.50
2023-03-10T22:37:48.221Z,0.93
2023-03-10T22:40:18.586Z,0.43
2023-03-10T22:42:46.946Z,2.00
2023-03-10T22:45:18.994Z,0.50
2023-03-10T22:47:47.636Z,0.63
2023-03-10T22:50:21.610Z,0.40
2023-03-10T22:52:49.656Z,1.63
2023-03-10T22:55:20.466Z,0.73
2023-03-10T22:57:48.479Z,3.17
2023-03-10T23:00:20.604Z,0.73
2023-03-10T23:02:49.796Z,0.30
2023-03-10T23:05:18.390Z,0.70
2023-03-10T23:07:48.541Z,0.30
2023-03-10T23:10:19.080Z,0.30
2023-03-10T23:12:47.137Z,2.23
2023-03-10T23:15:24.918Z,0.40
2023-03-10T23:17:53.942Z,0.23
2023-03-10T23:20:24.123Z,0.40
2023-03-10T23:22:54.067Z,0.20
2023-03-10T23:25:27.521Z,0.50
2023-03-10T23:27:55.633Z,0.43
2023-03-10T23:30:24.157Z,0.87
2023-03-10T23:32:52.488Z,0.40
2023-03-10T23:35:22.192Z,1.50
2023-03-10T23:37:50.187Z,0.93
2023-03-10T23:40:21.632Z,0.47
2023-03-10T23:42:49.749Z,0.63
2023-03-10T23:45:19.614Z,0.50
2023-03-10T23:47:48.327Z,0.40
2023-03-10T23:50:20.131Z,0.43
2023-03-10T23:52:48.572Z,0.47
2023-03-10T23:55:19.790Z,0.73
2023-03-10T23:57:49.300Z,1.10
